Time;durP1;ratioP1;P1;durP2;ratioP2;P2;SDS_P1;SDS_P2;PMS_P1;PMS_P2;Temp;Humidity;BMP_temperature;BMP_pressure;BME280_temperature;BME280_humidity;BME280_pressure;Samples;Min_cycle;Max_cycle;Signal;HPM_P1;HPM_P2
2022/10/26 00:02:09;;;;;;;0.10;0.10;;;9.30;99.90;8.10;97390.00;;;;5051423;28;20198;-74
2022/10/26 00:04:37;;;;;;;0.10;0.10;;;9.20;99.90;8.10;97398.00;;;;5049040;28;20228;-77
2022/10/26 00:07:05;;;;;;;0.10;0.10;;;9.20;99.90;8.20;97405.00;;;;5049775;28;20206;-76
2022/10/26 00:09:33;;;;;;;0.10;0.10;;;9.30;99.90;8.20;97394.00;;;;5043732;28;20563;-77
2022/10/26 00:12:02;;;;;;;0.10;0.10;;;9.30;99.90;8.20;97396.00;;;;5047543;28;20190;-77
2022/10/26 00:14:31;;;;;;;0.10;0.10;;;9.40;99.90;8.20;97402.00;;;;5045234;28;20214;-75
2022/10/26 00:17:00;;;;;;;0.10;0.10;;;9.50;99.90;8.10;97397.00;;;;5051933;28;20244;-78
2022/10/26 00:19:28;;;;;;;0.10;0.10;;;9.30;99.90;8.10;97395.00;;;;5048060;28;20700;-76
2022/10/26 00:21:56;;;;;;;0.10;0.10;;;9.40;99.90;8.20;97394.00;;;;5045422;28;20599;-77
2022/10/26 00:24:24;;;;;;;0.10;0.10;;;9.40;99.90;8.00;97387.00;;;;5051400;28;20218;-76
2022/10/26 00:26:52;;;;;;;0.10;0.10;;;9.20;99.90;8.00;97402.00;;;;5038337;28;20201;-77
2022/10/26 00:29:20;;;;;;;0.10;0.10;;;9.30;99.90;8.00;97401.00;;;;5050079;28;20604;-77
2022/10/26 00:31:50;;;;;;;0.10;0.10;;;9.20;99.90;7.80;97391.00;;;;5020351;28;20217;-76
2022/10/26 00:34:18;;;;;;;0.10;0.10;;;9.00;99.90;7.70;97395.00;;;;5048634;28;20260;-76
2022/10/26 00:36:46;;;;;;;0.10;0.10;;;8.90;99.90;7.50;97406.00;;;;5033864;28;20240;-76
2022/10/26 00:39:14;;;;;;;0.10;0.10;;;8.90;99.90;7.80;97399.00;;;;5046855;28;20299;-76
2022/10/26 00:41:42;;;;;;;0.10;0.10;;;9.00;99.90;7.80;97390.00;;;;5062009;28;20313;-75
2022/10/26 00:44:59;;;;;;;0.10;0.10;;;9.10;99.90;7.80;97407.00;;;;5060911;28;20199;-75
2022/10/26 00:47:42;;;;;;;0.10;0.10;;;9.00;99.90;7.50;97397.00;;;;5047131;28;20202;-76
2022/10/26 00:50:16;;;;;;;0.10;0.10;;;8.90;99.90;7.70;97401.00;;;;5050012;28;20205;-73
2022/10/26 00:52:44;;;;;;;0.10;0.10;;;8.90;99.90;7.50;97397.00;;;;5050368;28;20202;-76
2022/10/26 00:55:12;;;;;;;0.10;0.10;;;8.80;99.90;7.70;97356.00;;;;5051136;28;20214;-76
2022/10/26 00:57:41;;;;;;;0.10;0.10;;;9.00;99.90;7.50;97401.00;;;;5049998;28;20268;-75
2022/10/26 01:00:10;;;;;;;0.10;0.10;;;8.80;99.90;7.50;97395.00;;;;5051269;28;20592;-76
2022/10/26 01:02:40;;;;;;;0.10;0.10;;;8.70;99.90;7.60;97408.00;;;;5051417;28;20199;-76
2022/10/26 01:05:10;;;;;;;0.10;0.10;;;8.80;99.90;7.50;97393.00;;;;5042254;28;20202;-75
2022/10/26 01:07:39;;;;;;;0.10;0.10;;;8.70;99.90;7.40;97397.00;;;;5048169;28;20206;-76
2022/10/26 01:10:09;;;;;;;0.10;0.10;;;8.50;99.90;7.40;97379.00;;;;5043589;28;20198;-77
2022/10/26 01:12:38;;;;;;;0.03;0.03;;;8.60;99.90;7.50;97387.00;;;;5050818;28;20208;-75
2022/10/26 01:15:07;;;;;;;0.10;0.10;;;8.70;99.90;7.50;97380.00;;;;5051486;28;20229;-76
2022/10/26 01:17:55;;;;;;;0.10;0.10;;;8.70;99.90;7.50;97378.00;;;;5050469;28;20202;-77
2022/10/26 01:21:13;;;;;;;0.10;0.10;;;8.70;99.90;7.60;97384.00;;;;5039248;28;20245;-73
2022/10/26 01:24:21;;;;;;;0.10;0.10;;;8.80;99.90;7.70;97382.00;;;;5049288;28;20206;-75
2022/10/26 01:27:08;;;;;;;0.10;0.10;;;8.80;99.90;7.70;97381.00;;;;5050791;28;20210;-75
2022/10/26 01:30:12;;;;;;;0.15;0.15;;;8.80;99.90;7.70;97378.00;;;;5049193;28;20268;-76
2022/10/26 01:32:51;;;;;;;0.10;0.10;;;8.80;99.90;7.70;97382.00;;;;5041980;28;20205;-76
2022/10/26 01:35:28;;;;;;;0.10;0.10;;;8.80;99.90;7.60;97384.00;;;;5046513;28;20225;-76
2022/10/26 01:38:04;;;;;;;0.10;0.10;;;8.70;99.90;7.60;97376.00;;;;5044413;28;20244;-75
2022/10/26 01:40:40;;;;;;;0.10;0.10;;;8.80;99.90;7.60;97376.00;;;;5050069;28;20189;-76
2022/10/26 01:43:12;;;;;;;0.10;0.10;;;8.80;99.90;7.70;97375.00;;;;5050215;28;20202;-75
2022/10/26 01:45:47;;;;;;;0.10;0.10;;;8.80;99.90;7.70;97368.00;;;;5035373;28;20199;-76
2022/10/26 01:48:20;;;;;;;0.10;0.10;;;8.90;99.90;7.80;97361.00;;;;5034927;28;20224;-76
2022/10/26 01:50:54;;;;;;;0.10;0.10;;;8.90;99.90;7.90;97346.00;;;;5047249;28;20247;-76
2022/10/26 01:53:22;;;;;;;0.10;0.10;;;9.00;99.90;7.80;97357.00;;;;5053194;28;20674;-73
2022/10/26 01:55:52;;;;;;;0.10;0.10;;;8.90;99.90;7.60;97352.00;;;;5035602;28;20226;-74
2022/10/26 01:59:14;;;;;;;0.10;0.10;;;8.80;99.90;7.60;97354.00;;;;5039999;28;20214;-75
2022/10/26 02:02:43;;;;;;;0.10;0.10;;;8.70;99.90;7.50;97354.00;;;;5014121;28;20252;-75
2022/10/26 02:05:35;;;;;;;0.10;0.10;;;8.70;99.90;7.50;97342.00;;;;5051020;28;20205;-75
2022/10/26 02:08:41;;;;;;;0.10;0.10;;;8.70;99.90;7.50;97354.00;;;;5051946;28;20297;-75
2022/10/26 02:11:24;;;;;;;0.10;0.10;;;8.60;99.90;7.40;97355.00;;;;5041264;28;20210;-75
2022/10/26 02:14:00;;;;;;;0.10;0.10;;;8.60;99.90;7.30;97355.00;;;;5046065;28;20601;-75
2022/10/26 02:16:38;;;;;;;0.10;0.10;;;8.50;99.90;7.30;97345.00;;;;5053140;28;20206;-76
2022/10/26 02:19:25;;;;;;;0.10;0.10;;;8.60;99.90;7.40;97339.00;;;;5052558;28;20218;-76
2022/10/26 02:22:02;;;;;;;0.10;0.10;;;8.60;99.90;7.60;97339.00;;;;5044334;28;20267;-75
2022/10/26 02:24:33;;;;;;;0.10;0.10;;;8.70;99.90;7.70;97345.00;;;;5047658;28;20241;-76
2022/10/26 02:27:06;;;;;;;0.10;0.10;;;8.80;99.90;7.70;97305.00;;;;5053266;28;20552;-73
2022/10/26 02:29:37;;;;;;;0.10;0.10;;;8.80;99.90;7.60;97346.00;;;;5052214;28;20261;-73
2022/10/26 02:32:08;;;;;;;0.10;0.10;;;8.70;99.90;7.50;97346.00;;;;5022459;28;20267;-73
2022/10/26 02:34:41;;;;;;;0.10;0.10;;;8.70;99.90;7.60;97336.00;;;;5050993;28;20214;-74
2022/10/26 02:37:10;;;;;;;0.10;0.10;;;8.70;99.90;7.60;97349.00;;;;5053554;28;20248;-76
2022/10/26 02:39:40;;;;;;;0.10;0.10;;;8.60;99.90;7.60;97351.00;;;;5050625;28;20234;-76
2022/10/26 02:42:11;;;;;;;0.10;0.10;;;8.70;99.90;7.60;97347.00;;;;5052439;28;20735;-74
2022/10/26 02:44:47;;;;;;;0.10;0.10;;;8.60;99.90;7.50;97315.00;;;;5052411;28;20624;-76
2022/10/26 02:47:17;;;;;;;0.10;0.10;;;8.50;99.90;7.50;97343.00;;;;5045807;28;20198;-76
2022/10/26 02:49:47;;;;;;;0.10;0.10;;;8.60;99.90;7.50;97340.00;;;;5042997;28;20210;-75
2022/10/26 02:52:24;;;;;;;0.10;0.10;;;8.60;99.90;7.40;97331.00;;;;5045502;28;20558;-75
2022/10/26 02:54:59;;;;;;;0.10;0.10;;;8.50;99.90;7.40;97342.00;;;;5051535;28;20762;-75
2022/10/26 02:57:34;;;;;;;0.10;0.10;;;8.50;99.90;7.40;97340.00;;;;5052731;28;20726;-76
2022/10/26 03:00:04;;;;;;;0.10;0.10;;;8.50;99.90;7.50;97299.00;;;;5052584;28;20205;-73
2022/10/26 03:02:32;;;;;;;0.10;0.10;;;8.70;99.90;7.50;97336.00;;;;5053100;28;20238;-73
2022/10/26 03:05:13;;;;;;;0.10;0.10;;;8.70;99.90;7.50;97339.00;;;;5054008;28;20249;-72
2022/10/26 03:07:41;;;;;;;0.10;0.10;;;8.70;99.90;7.60;97333.00;;;;5045289;28;20203;-72
2022/10/26 03:10:10;;;;;;;0.10;0.10;;;8.80;99.90;7.60;97343.00;;;;5052796;28;20198;-72
2022/10/26 03:12:38;;;;;;;0.10;0.10;;;8.80;99.90;7.70;97343.00;;;;5041111;28;20686;-72
2022/10/26 03:15:08;;;;;;;0.10;0.10;;;8.80;99.90;7.60;97300.00;;;;5035987;28;20233;-72
2022/10/26 03:17:36;;;;;;;0.10;0.10;;;8.70;99.90;7.60;97340.00;;;;5040533;28;20195;-72
2022/10/26 03:20:08;;;;;;;0.10;0.10;;;8.70;99.90;7.70;97346.00;;;;5052243;28;20182;-72
2022/10/26 03:22:36;;;;;;;0.00;0.00;;;8.80;99.90;7.70;97344.00;;;;5048446;28;20669;-73
2022/10/26 03:25:28;;;;;;;0.10;0.10;;;8.90;99.90;7.80;97334.00;;;;5050268;28;20305;-75
2022/10/26 03:28:06;;;;;;;0.10;0.10;;;8.90;99.90;7.80;97332.00;;;;5049128;28;20218;-75
2022/10/26 03:30:34;;;;;;;0.10;0.10;;;9.00;99.90;7.60;97325.00;;;;5052524;28;20665;-72
2022/10/26 03:33:02;;;;;;;0.10;0.10;;;8.70;99.90;7.30;97323.00;;;;5050986;28;20206;-76
2022/10/26 03:35:32;;;;;;;0.10;0.10;;;8.50;99.90;7.30;97328.00;;;;5053044;28;20214;-74
2022/10/26 03:38:00;;;;;;;0.10;0.10;;;8.40;99.90;7.30;97338.00;;;;5051578;28;20225;-75
2022/10/26 03:40:28;;;;;;;0.10;0.10;;;8.50;99.90;7.40;97339.00;;;;5042795;28;20195;-73
2022/10/26 03:42:56;;;;;;;0.10;0.10;;;8.50;99.90;7.40;97326.00;;;;5049491;28;20198;-73
2022/10/26 03:45:24;;;;;;;0.10;0.10;;;8.50;99.90;7.40;97328.00;;;;5052570;28;20237;-74
2022/10/26 03:47:52;;;;;;;0.10;0.10;;;8.50;99.90;7.40;97326.00;;;;5051210;28;20554;-74
2022/10/26 03:50:22;;;;;;;0.10;0.10;;;8.50;99.90;7.50;97308.00;;;;5040782;28;20256;-76
2022/10/26 03:52:52;;;;;;;0.10;0.10;;;8.60;99.90;7.60;97336.00;;;;5043537;28;20194;-75
2022/10/26 03:55:20;;;;;;;0.10;0.10;;;8.70;99.90;7.60;97337.00;;;;5031543;28;20226;-75
2022/10/26 03:57:48;;;;;;;0.10;0.10;;;8.70;99.90;7.50;97329.00;;;;5044856;28;20255;-76
2022/10/26 04:00:18;;;;;;;0.10;0.10;;;8.60;99.90;7.40;97329.00;;;;5046538;28;20198;-74
2022/10/26 04:02:54;;;;;;;0.10;0.10;;;8.50;99.90;7.30;97315.00;;;;5052169;28;20199;-75
2022/10/26 04:05:23;;;;;;;0.10;0.10;;;8.40;99.90;7.30;97241.00;;;;5051699;28;20198;-74
2022/10/26 04:07:57;;;;;;;0.10;0.10;;;8.50;99.90;7.40;97320.00;;;;5047840;28;20610;-74
2022/10/26 04:10:27;;;;;;;0.10;0.10;;;8.50;99.90;7.20;97318.00;;;;5044369;28;20259;-74
2022/10/26 04:12:57;;;;;;;0.10;0.10;;;8.40;99.90;7.20;97315.00;;;;5031404;28;20252;-74
2022/10/26 04:15:25;;;;;;;0.10;0.10;;;8.40;99.90;7.20;97336.00;;;;5050926;28;20222;-73
2022/10/26 04:17:58;;;;;;;0.10;0.10;;;8.40;99.90;7.00;97330.00;;;;5045646;28;20241;-73
2022/10/26 04:20:28;;;;;;;0.10;0.10;;;8.20;99.90;7.10;97331.00;;;;5046104;28;20244;-73
2022/10/26 04:23:00;;;;;;;0.08;0.08;;;8.30;99.90;7.10;97359.00;;;;5034637;28;20198;-73
2022/10/26 04:25:28;;;;;;;0.10;0.10;;;8.30;99.90;7.10;97333.00;;;;5050584;28;20256;-74
2022/10/26 04:28:01;;;;;;;0.10;0.10;;;8.30;99.90;7.10;97339.00;;;;5048216;28;20225;-74
2022/10/26 04:30:30;;;;;;;0.10;0.10;;;8.30;99.90;7.20;97315.00;;;;5027852;28;20260;-74
2022/10/26 04:32:58;;;;;;;0.10;0.10;;;8.30;99.90;7.40;97322.00;;;;5037727;28;20190;-75
2022/10/26 04:35:26;;;;;;;0.10;0.10;;;8.40;99.90;7.50;97332.00;;;;5050987;28;20207;-75
2022/10/26 04:37:59;;;;;;;0.10;0.10;;;8.60;99.90;7.60;97319.00;;;;5050098;28;20221;-74
2022/10/26 04:40:27;;;;;;;0.10;0.10;;;8.60;99.90;7.60;97333.00;;;;5049472;28;20202;-74
2022/10/26 04:42:55;;;;;;;0.10;0.10;;;8.60;99.90;7.60;97311.00;;;;5049519;28;20230;-74
2022/10/26 04:45:24;;;;;;;0.10;0.10;;;8.60;99.90;7.40;97318.00;;;;5044942;28;20452;-74
2022/10/26 04:48:04;;;;;;;0.10;0.10;;;8.50;99.90;7.40;97327.00;;;;5036498;28;20888;-74
2022/10/26 04:50:32;;;;;;;0.00;0.00;;;8.50;99.90;7.40;97338.00;;;;5054863;28;20195;-74
2022/10/26 04:53:04;;;;;;;0.10;0.10;;;8.50;99.90;7.30;97323.00;;;;5056239;28;20190;-74
2022/10/26 04:55:33;;;;;;;0.10;0.10;;;8.40;99.90;7.20;97327.00;;;;5054592;28;20225;-74
2022/10/26 04:58:01;;;;;;;0.10;0.10;;;8.30;99.90;7.20;97331.00;;;;5052731;28;20685;-75
2022/10/26 05:00:31;;;;;;;0.10;0.10;;;8.30;99.90;7.20;97313.00;;;;5061733;28;20256;-75
2022/10/26 05:03:00;;;;;;;0.10;0.10;;;8.20;99.90;7.20;97325.00;;;;5060420;28;20232;-75
2022/10/26 05:05:30;;;;;;;0.10;0.10;;;8.30;99.90;7.30;97313.00;;;;5051132;28;20196;-74
2022/10/26 05:07:58;;;;;;;0.10;0.10;;;8.40;99.90;7.30;97323.00;;;;5034782;28;20210;-74
2022/10/26 05:10:28;;;;;;;0.10;0.10;;;8.40;99.90;7.40;97290.00;;;;5034798;28;20199;-74
2022/10/26 05:12:59;;;;;;;0.10;0.10;;;8.40;99.90;7.20;97316.00;;;;5046328;28;20256;-74
2022/10/26 05:15:28;;;;;;;0.10;0.10;;;8.40;99.90;7.30;97323.00;;;;5050850;28;20190;-75
2022/10/26 05:17:58;;;;;;;0.00;0.00;;;8.40;99.90;7.30;97275.00;;;;5050373;28;20218;-74
2022/10/26 05:20:31;;;;;;;0.10;0.10;;;8.40;99.90;7.30;97318.00;;;;5051363;28;20316;-74
2022/10/26 05:23:12;;;;;;;0.10;0.10;;;8.40;99.90;7.20;97318.00;;;;5054764;28;20269;-75
2022/10/26 05:25:42;;;;;;;0.10;0.10;;;8.40;99.90;7.40;97336.00;;;;5051462;28;20201;-74
2022/10/26 05:28:13;;;;;;;0.10;0.10;;;8.50;99.90;7.40;97326.00;;;;5051154;28;20207;-75
2022/10/26 05:30:43;;;;;;;0.10;0.10;;;8.60;99.90;7.50;97309.00;;;;5047265;28;20247;-75
2022/10/26 05:33:13;;;;;;;0.10;0.10;;;8.70;99.90;7.60;97337.00;;;;5055833;28;20252;-75
2022/10/26 05:35:42;;;;;;;0.10;0.10;;;8.70;99.90;7.70;97335.00;;;;5055701;28;20202;-74
2022/10/26 05:38:12;;;;;;;0.10;0.10;;;8.80;99.90;7.80;97331.00;;;;5055646;28;20222;-74
2022/10/26 05:40:49;;;;;;;0.10;0.10;;;8.90;99.90;7.80;97340.00;;;;5055497;28;20277;-74
2022/10/26 05:43:18;;;;;;;0.10;0.10;;;8.90;99.90;7.70;97333.00;;;;5054261;28;20198;-74
2022/10/26 05:45:47;;;;;;;0.10;0.10;;;8.80;99.90;7.70;97335.00;;;;5055071;28;20187;-74
2022/10/26 05:48:15;;;;;;;0.10;0.10;;;8.80;99.90;7.70;97331.00;;;;5054751;28;20210;-74
2022/10/26 05:50:44;;;;;;;0.10;0.10;;;8.80;99.90;7.70;97334.00;;;;5054900;28;20563;-74
2022/10/26 05:53:12;;;;;;;0.10;0.10;;;8.80;99.90;7.70;97347.00;;;;5054729;28;20229;-75
2022/10/26 05:55:42;;;;;;;0.08;0.08;;;8.80;99.90;7.70;97341.00;;;;5054851;28;20194;-75
2022/10/26 05:58:14;;;;;;;0.10;0.10;;;8.80;99.90;7.70;97341.00;;;;5054020;28;20565;-74
2022/10/26 06:00:57;;;;;;;0.10;0.10;;;8.80;99.90;7.80;97339.00;;;;5054900;28;20191;-74
2022/10/26 06:03:49;;;;;;;0.10;0.10;;;8.90;99.90;7.90;97332.00;;;;5054394;28;20597;-74
2022/10/26 06:06:18;;;;;;;0.10;0.10;;;9.00;99.90;8.00;97345.00;;;;5054318;28;20195;-74
2022/10/26 06:08:47;;;;;;;0.10;0.10;;;9.00;99.90;8.00;97337.00;;;;5035962;28;20229;-74
2022/10/26 06:11:16;;;;;;;0.10;0.10;;;9.00;99.90;8.00;97345.00;;;;5054249;28;20252;-74
2022/10/26 06:13:46;;;;;;;0.10;0.10;;;9.00;99.90;8.00;97340.00;;;;5054742;28;20248;-73
2022/10/26 06:16:33;;;;;;;0.10;0.10;;;9.00;99.90;8.10;97346.00;;;;5054259;28;20206;-75
2022/10/26 06:19:22;;;;;;;0.10;0.10;;;9.10;99.90;8.10;97349.00;;;;5054201;28;20611;-74
2022/10/26 06:22:10;;;;;;;0.10;0.10;;;9.10;99.90;8.10;97354.00;;;;5045288;28;20589;-73
2022/10/26 06:24:50;;;;;;;0.10;0.10;;;9.10;99.90;8.20;97352.00;;;;5034272;28;20223;-73
2022/10/26 06:27:29;;;;;;;0.00;0.00;;;9.20;99.90;8.40;97346.00;;;;5034045;28;20505;-74
2022/10/26 06:30:04;;;;;;;0.10;0.10;;;9.40;99.90;8.60;97354.00;;;;5051320;28;20276;-74
2022/10/26 06:32:34;;;;;;;0.10;0.10;;;9.50;99.90;8.70;97358.00;;;;5053881;28;20221;-74
2022/10/26 06:35:20;;;;;;;0.10;0.10;;;9.60;99.90;8.80;97354.00;;;;5054084;28;20186;-74
2022/10/26 06:37:50;;;;;;;0.10;0.10;;;9.70;99.90;8.70;97357.00;;;;5053649;28;20221;-74
2022/10/26 06:40:20;;;;;;;0.10;0.10;;;9.90;99.90;9.00;97354.00;;;;5099534;22;20259;-77
2022/10/26 06:42:49;;;;;;;0.10;0.10;;;10.00;99.90;9.10;97357.00;;;;5076137;28;20729;-76
2022/10/26 06:45:20;;;;;;;0.10;0.10;;;10.00;99.90;9.20;97358.00;;;;5078022;28;20190;-76
2022/10/26 06:47:57;;;;;;;0.10;0.10;;;10.20;99.90;9.20;97326.00;;;;5058973;28;20194;-76
2022/10/26 06:50:37;;;;;;;0.10;0.10;;;10.10;99.90;9.30;97356.00;;;;5076980;28;20220;-75
2022/10/26 06:53:20;;;;;;;0.10;0.10;;;10.20;99.90;9.40;97351.00;;;;5076749;28;20198;-75
2022/10/26 06:55:50;;;;;;;0.10;0.10;;;10.30;99.90;9.40;97364.00;;;;5076958;28;20243;-76
2022/10/26 06:58:22;;;;;;;0.10;0.10;;;10.30;99.90;9.40;97311.00;;;;5077148;28;20217;-76
2022/10/26 07:00:55;;;;;;;0.10;0.10;;;10.40;99.90;9.50;97362.00;;;;5074836;28;20259;-77
2022/10/26 07:03:23;;;;;;;0.10;0.10;;;10.50;99.90;9.60;97360.00;;;;5075075;28;20209;-76
2022/10/26 07:05:51;;;;;;;0.10;0.10;;;10.50;99.90;9.70;97391.00;;;;5076776;28;20206;-76
2022/10/26 07:08:20;;;;;;;0.10;0.10;;;10.60;99.90;9.70;97366.00;;;;5058321;28;20209;-76
2022/10/26 07:10:48;;;;;;;0.00;0.00;;;10.70;99.90;9.80;97362.00;;;;5076183;28;20602;-76
2022/10/26 07:13:16;;;;;;;0.10;0.10;;;10.80;99.90;9.90;97365.00;;;;5077500;28;20194;-76
2022/10/26 07:15:45;;;;;;;0.10;0.10;;;10.80;99.90;10.00;97355.00;;;;5057552;28;20259;-79
2022/10/26 07:18:14;;;;;;;0.10;0.10;;;10.90;99.90;10.10;97375.00;;;;5074033;28;20225;-76
2022/10/26 07:20:42;;;;;;;0.00;0.00;;;11.00;99.90;10.20;97369.00;;;;5074794;28;20190;-79
2022/10/26 07:23:11;;;;;;;0.10;0.10;;;11.10;99.90;10.30;97383.00;;;;5073316;28;20186;-77
2022/10/26 07:25:39;;;;;;;0.10;0.10;;;11.20;99.90;10.40;97367.00;;;;5073046;28;20248;-77
2022/10/26 07:28:09;;;;;;;0.10;0.10;;;11.20;99.90;10.40;97377.00;;;;5072645;28;20190;-75
2022/10/26 07:30:40;;;;;;;0.10;0.10;;;11.30;99.90;10.50;97382.00;;;;5073024;28;20243;-75
2022/10/26 07:33:10;;;;;;;0.10;0.10;;;11.40;99.90;10.60;97359.00;;;;5073290;28;20185;-75
2022/10/26 07:35:40;;;;;;;0.10;0.10;;;11.50;99.90;10.70;97381.00;;;;5072904;28;20186;-75
2022/10/26 07:38:09;;;;;;;0.10;0.10;;;11.50;99.90;10.70;97392.00;;;;5054173;28;20225;-75
2022/10/26 07:40:37;;;;;;;0.10;0.10;;;11.60;99.90;10.80;97380.00;;;;5072938;28;20733;-75
2022/10/26 07:43:06;;;;;;;0.10;0.10;;;11.70;99.90;10.90;97387.00;;;;5072974;28;20247;-77
2022/10/26 07:45:35;;;;;;;0.00;0.00;;;11.70;99.90;11.00;97381.00;;;;5072375;28;20300;-75
2022/10/26 07:48:03;;;;;;;0.10;0.10;;;11.80;99.90;11.10;97389.00;;;;5072302;28;20464;-75
2022/10/26 07:50:32;;;;;;;0.10;0.10;;;11.90;99.90;11.10;97388.00;;;;5064589;28;20237;-74
2022/10/26 07:53:01;;;;;;;0.10;0.10;;;12.00;99.90;11.20;97386.00;;;;5071782;28;20206;-76
2022/10/26 07:55:29;;;;;;;0.03;0.03;;;12.10;99.90;11.30;97386.00;;;;5072455;28;20186;-75
2022/10/26 07:57:57;;;;;;;0.00;0.00;;;12.20;99.90;11.40;97388.00;;;;5054571;28;20229;-75
2022/10/26 08:00:27;;;;;;;0.10;0.10;;;12.20;99.90;11.40;97393.00;;;;5072510;28;20264;-74
2022/10/26 08:02:56;;;;;;;0.10;0.10;;;12.30;99.90;11.50;97390.00;;;;5072438;28;20194;-75
2022/10/26 08:05:24;;;;;;;0.00;0.00;;;12.40;99.90;11.60;97383.00;;;;5073047;28;20194;-77
2022/10/26 08:07:52;;;;;;;0.00;0.00;;;12.40;99.90;11.70;97396.00;;;;5073202;28;20277;-74
2022/10/26 08:10:22;;;;;;;0.10;0.10;;;12.50;99.90;11.70;97394.00;;;;5072750;28;20209;-75
2022/10/26 08:12:53;;;;;;;0.10;0.10;;;12.60;99.90;11.80;97391.00;;;;5072788;28;20220;-75
2022/10/26 08:15:21;;;;;;;0.10;0.10;;;12.70;99.90;11.90;97403.00;;;;5065346;28;20252;-75
2022/10/26 08:17:49;;;;;;;0.10;0.10;;;12.70;99.90;11.90;97397.00;;;;5060738;28;20213;-74
2022/10/26 08:20:18;;;;;;;0.10;0.10;;;12.80;99.90;12.00;97403.00;;;;5053153;28;20223;-75
2022/10/26 08:22:46;;;;;;;0.00;0.00;;;12.80;99.90;12.00;97401.00;;;;5053844;28;20199;-75
2022/10/26 08:25:15;;;;;;;0.00;0.00;;;12.80;99.90;12.00;97392.00;;;;5073167;28;20212;-76
2022/10/26 08:27:49;;;;;;;0.10;0.10;;;12.90;99.90;12.00;97394.00;;;;5054697;28;20590;-75
2022/10/26 08:30:18;;;;;;;0.10;0.10;;;12.80;99.90;12.10;97398.00;;;;5070768;28;20221;-75
2022/10/26 08:32:46;;;;;;;0.10;0.10;;;12.90;99.90;12.10;97390.00;;;;5072110;28;20270;-75
2022/10/26 08:35:16;;;;;;;0.10;0.10;;;12.90;99.90;12.10;97395.00;;;;5071932;28;20205;-75
2022/10/26 08:37:44;;;;;;;0.00;0.00;;;13.00;99.90;12.10;97393.00;;;;5071206;28;20275;-75
2022/10/26 08:40:17;;;;;;;0.00;0.00;;;12.90;99.90;12.10;97410.00;;;;5071529;28;20216;-75
2022/10/26 08:42:52;;;;;;;0.10;0.10;;;12.90;99.90;12.10;97414.00;;;;5071939;28;20205;-74
2022/10/26 08:45:28;;;;;;;0.10;0.10;;;12.90;99.90;12.10;97410.00;;;;5072766;28;20250;-74
2022/10/26 08:48:12;;;;;;;0.00;0.00;;;12.90;99.90;12.10;97411.00;;;;5071098;28;20198;-75
2022/10/26 08:50:48;;;;;;;0.00;0.00;;;12.90;99.90;12.10;97415.00;;;;5071391;28;20197;-74
2022/10/26 08:53:22;;;;;;;0.10;0.10;;;13.00;99.90;12.10;97421.00;;;;5074276;28;20212;-74
2022/10/26 08:55:56;;;;;;;0.00;0.00;;;13.00;99.90;12.10;97426.00;;;;5086188;28;20192;-75
2022/10/26 08:58:36;;;;;;;0.00;0.00;;;13.00;99.90;12.10;97432.00;;;;5085140;28;20255;-77
2022/10/26 09:01:05;;;;;;;0.10;0.10;;;12.90;99.90;12.10;97424.00;;;;5085546;28;20189;-75
2022/10/26 09:03:33;;;;;;;0.10;0.10;;;12.90;99.90;12.10;97425.00;;;;5085681;28;20189;-74
2022/10/26 09:06:23;;;;;;;0.00;0.00;;;12.90;99.90;12.10;97436.00;;;;5085214;28;20194;-74
2022/10/26 09:09:03;;;;;;;0.00;0.00;;;12.90;99.90;12.10;97396.00;;;;5083735;28;20229;-74
2022/10/26 09:11:51;;;;;;;0.10;0.10;;;12.90;99.90;12.10;97438.00;;;;5076957;28;20246;-74
2022/10/26 09:14:37;;;;;;;0.10;0.10;;;12.90;99.90;12.00;97438.00;;;;5072940;28;20683;-75
2022/10/26 09:17:15;;;;;;;0.00;0.00;;;12.90;99.90;12.10;97445.00;;;;5071953;28;20197;-75
2022/10/26 09:20:12;;;;;;;0.00;0.00;;;12.90;99.90;12.10;97441.00;;;;5069922;28;20225;-74
2022/10/26 09:22:50;;;;;;;0.03;0.03;;;12.90;99.90;12.00;97425.00;;;;5072949;28;20224;-75
2022/10/26 09:25:22;;;;;;;0.00;0.00;;;12.90;99.90;12.10;97436.00;;;;5073047;28;20217;-77
2022/10/26 09:27:55;;;;;;;0.00;0.00;;;12.90;99.90;12.10;97441.00;;;;5054807;28;20517;-74
2022/10/26 09:30:25;;;;;;;0.10;0.10;;;12.90;99.90;12.10;97406.00;;;;5056181;28;20217;-75
2022/10/26 09:32:59;;;;;;;0.10;0.10;;;12.90;99.90;12.10;97451.00;;;;5071293;28;20721;-75
2022/10/26 09:35:33;;;;;;;0.05;0.05;;;12.90;99.90;12.10;97440.00;;;;5071822;28;20191;-75
2022/10/26 09:38:14;;;;;;;0.00;0.00;;;12.90;99.90;12.10;97449.00;;;;5066337;28;20231;-74
2022/10/26 09:40:55;;;;;;;0.00;0.00;;;12.90;99.90;12.10;97462.00;;;;5061594;28;20285;-75
2022/10/26 09:43:28;;;;;;;0.10;0.10;;;12.90;99.90;12.10;97443.00;;;;5059948;28;20215;-77
2022/10/26 09:45:58;;;;;;;0.10;0.10;;;13.00;99.90;12.10;97422.00;;;;5053187;28;20540;-75
2022/10/26 09:48:35;;;;;;;0.10;0.10;;;13.00;99.90;12.10;97459.00;;;;5071355;28;20198;-75
2022/10/26 09:51:03;;;;;;;0.10;0.10;;;13.00;99.90;12.10;97467.00;;;;5072122;28;20189;-77
2022/10/26 09:53:32;;;;;;;0.10;0.10;;;13.00;99.90;12.10;97461.00;;;;5074831;28;20193;-75
2022/10/26 09:56:07;;;;;;;0.00;0.00;;;13.00;99.90;12.10;97458.00;;;;5074872;28;20221;-75
2022/10/26 09:58:42;;;;;;;0.10;0.10;;;13.00;99.90;12.20;97479.00;;;;5073952;28;20237;-78
2022/10/26 10:01:31;;;;;;;0.10;0.10;;;13.00;99.90;12.20;97476.00;;;;5057461;28;20202;-75
2022/10/26 10:04:18;;;;;;;0.00;0.00;;;13.00;99.90;12.20;97486.00;;;;5064461;28;20198;-75
2022/10/26 10:06:48;;;;;;;0.10;0.10;;;13.00;99.90;12.20;97496.00;;;;5072309;28;20614;-75
2022/10/26 10:09:20;;;;;;;0.08;0.08;;;13.00;99.90;12.20;97467.00;;;;5036853;28;20230;-75
2022/10/26 10:11:57;;;;;;;0.00;0.00;;;13.00;99.90;12.20;97529.00;;;;5039790;28;20202;-75
2022/10/26 10:14:28;;;;;;;0.00;0.00;;;13.00;99.90;12.20;97503.00;;;;5036980;28;20209;-75
2022/10/26 10:17:02;;;;;;;0.10;0.10;;;13.10;99.90;12.30;97487.00;;;;5055478;28;20194;-75
2022/10/26 10:19:32;;;;;;;0.10;0.10;;;13.10;99.90;12.30;97497.00;;;;5038247;28;20240;-75
2022/10/26 10:22:13;;;;;;;0.00;0.00;;;13.10;99.90;12.30;97406.00;;;;5057961;28;20186;-74
2022/10/26 10:24:58;;;;;;;0.10;0.10;;;13.10;99.90;12.40;97418.00;;;;5042581;28;20226;-75
2022/10/26 10:27:28;;;;;;;0.10;0.10;;;13.20;99.90;12.40;97498.00;;;;5054529;28;20197;-75
2022/10/26 10:29:58;;;;;;;0.10;0.10;;;13.20;99.90;12.50;97517.00;;;;5057433;28;20213;-75
2022/10/26 10:32:33;;;;;;;0.10;0.10;;;13.30;99.90;12.50;97500.00;;;;5055084;28;20225;-76
2022/10/26 10:35:25;;;;;;;0.00;0.00;;;13.30;99.90;12.60;97499.00;;;;5056511;28;20256;-76
2022/10/26 10:37:53;;;;;;;0.10;0.10;;;13.40;99.90;12.70;97491.00;;;;5054941;28;20191;-76
2022/10/26 10:40:25;;;;;;;0.00;0.00;;;13.40;99.90;12.70;97486.00;;;;5058071;28;20224;-76
2022/10/26 10:43:02;;;;;;;0.10;0.10;;;13.50;99.90;12.80;97486.00;;;;5075660;28;20201;-76
2022/10/26 10:45:31;;;;;;;0.00;0.00;;;13.60;99.90;12.80;97486.00;;;;5057672;28;20239;-75
2022/10/26 10:48:05;;;;;;;0.10;0.10;;;13.60;99.90;12.80;97488.00;;;;5060159;28;20209;-75
2022/10/26 10:50:36;;;;;;;0.10;0.10;;;13.60;99.90;12.90;97495.00;;;;5055448;28;20203;-75
2022/10/26 10:53:18;;;;;;;0.00;0.00;;;13.60;99.90;12.80;97484.00;;;;5055005;28;20206;-75
2022/10/26 10:56:04;;;;;;;0.10;0.10;;;13.60;99.90;12.90;97491.00;;;;5054123;28;20277;-75
2022/10/26 10:58:52;;;;;;;0.00;0.00;;;13.70;99.90;13.00;97494.00;;;;5053860;28;20257;-76
2022/10/26 11:01:22;;;;;;;0.00;0.00;;;13.70;99.90;13.00;97496.00;;;;5054333;28;20536;-75
2022/10/26 11:04:21;;;;;;;0.10;0.10;;;13.80;99.90;13.00;97499.00;;;;5036317;28;20216;-76
2022/10/26 11:06:51;;;;;;;0.00;0.00;;;13.80;99.90;13.00;97495.00;;;;5037413;28;20256;-75
2022/10/26 11:09:26;;;;;;;0.00;0.00;;;13.80;99.90;13.00;97489.00;;;;5055191;28;20214;-75
2022/10/26 11:12:01;;;;;;;0.00;0.00;;;13.80;99.90;13.00;97509.00;;;;5056375;28;20197;-76
2022/10/26 11:14:34;;;;;;;0.00;0.00;;;13.80;99.90;13.00;97510.00;;;;5056091;28;20564;-75
2022/10/26 11:17:08;;;;;;;0.00;0.00;;;13.80;99.90;13.10;97505.00;;;;5056424;28;20198;-75
2022/10/26 11:19:45;;;;;;;0.00;0.00;;;13.90;99.90;13.20;97511.00;;;;5055307;28;20220;-75
2022/10/26 11:22:21;;;;;;;0.05;0.05;;;13.90;99.90;13.20;97494.00;;;;5056002;28;20505;-75
2022/10/26 11:24:56;;;;;;;0.10;0.10;;;13.90;99.90;13.10;97488.00;;;;5055992;28;20198;-76
2022/10/26 11:27:33;;;;;;;0.00;0.00;;;13.90;99.90;13.10;97505.00;;;;5055631;28;20194;-74
2022/10/26 11:30:07;;;;;;;0.00;0.00;;;13.90;99.90;13.10;97485.00;;;;5056653;28;20217;-74
2022/10/26 11:32:43;;;;;;;0.00;0.00;;;13.90;99.90;13.20;97463.00;;;;5056737;28;20276;-76